sensor_id;sensor_type;location;lat;lon;timestamp;P1;durP1;ratioP1;P2;durP2;ratioP2
36441;SDS011;73131;50.820;16.274;2024-02-14T00:01:51;25.98;;;10.90;;
36441;SDS011;73131;50.820;16.274;2024-02-14T00:04:56;19.02;;;9.55;;
36441;SDS011;73131;50.820;16.274;2024-02-14T00:07:57;21.80;;;11.32;;
36441;SDS011;73131;50.820;16.274;2024-02-14T00:10:58;25.17;;;12.10;;
36441;SDS011;73131;50.820;16.274;2024-02-14T00:14:00;21.15;;;10.63;;
36441;SDS011;73131;50.820;16.274;2024-02-14T00:17:02;27.10;;;13.90;;
36441;SDS011;73131;50.820;16.274;2024-02-14T00:20:03;27.65;;;13.30;;
36441;SDS011;73131;50.820;16.274;2024-02-14T00:23:05;21.15;;;12.90;;
36441;SDS011;73131;50.820;16.274;2024-02-14T00:26:06;19.38;;;10.48;;
36441;SDS011;73131;50.820;16.274;2024-02-14T00:29:09;23.23;;;11.23;;
36441;SDS011;73131;50.820;16.274;2024-02-14T00:32:11;23.00;;;12.13;;
36441;SDS011;73131;50.820;16.274;2024-02-14T00:35:13;21.27;;;10.73;;
36441;SDS011;73131;50.820;16.274;2024-02-14T00:38:14;20.65;;;10.27;;
36441;SDS011;73131;50.820;16.274;2024-02-14T00:41:15;19.17;;;11.68;;
36441;SDS011;73131;50.820;16.274;2024-02-14T00:44:19;16.92;;;8.20;;
36441;SDS011;73131;50.820;16.274;2024-02-14T00:47:20;22.00;;;9.73;;
36441;SDS011;73131;50.820;16.274;2024-02-14T00:50:23;18.20;;;8.48;;
36441;SDS011;73131;50.820;16.274;2024-02-14T00:53:26;19.40;;;10.48;;
36441;SDS011;73131;50.820;16.274;2024-02-14T00:56:27;16.17;;;9.15;;
36441;SDS011;73131;50.820;16.274;2024-02-14T00:59:28;22.25;;;11.55;;
36441;SDS011;73131;50.820;16.274;2024-02-14T01:02:29;25.45;;;11.68;;
36441;SDS011;73131;50.820;16.274;2024-02-14T01:05:33;24.95;;;13.00;;
36441;SDS011;73131;50.820;16.274;2024-02-14T01:08:36;30.75;;;14.30;;
36441;SDS011;73131;50.820;16.274;2024-02-14T01:11:38;31.65;;;14.82;;
36441;SDS011;73131;50.820;16.274;2024-02-14T01:14:39;29.52;;;13.88;;
36441;SDS011;73131;50.820;16.274;2024-02-14T01:17:40;28.73;;;14.15;;
36441;SDS011;73131;50.820;16.274;2024-02-14T01:20:41;24.10;;;12.85;;
36441;SDS011;73131;50.820;16.274;2024-02-14T01:23:42;28.90;;;14.18;;
36441;SDS011;73131;50.820;16.274;2024-02-14T01:26:43;23.75;;;12.43;;
36441;SDS011;73131;50.820;16.274;2024-02-14T01:29:44;26.48;;;14.20;;
36441;SDS011;73131;50.820;16.274;2024-02-14T01:32:45;26.15;;;14.00;;
36441;SDS011;73131;50.820;16.274;2024-02-14T01:35:47;27.38;;;14.82;;
36441;SDS011;73131;50.820;16.274;2024-02-14T01:38:48;27.23;;;13.63;;
36441;SDS011;73131;50.820;16.274;2024-02-14T01:41:52;28.42;;;14.70;;
36441;SDS011;73131;50.820;16.274;2024-02-14T01:44:55;33.65;;;14.57;;
36441;SDS011;73131;50.820;16.274;2024-02-14T01:47:56;27.52;;;14.38;;
36441;SDS011;73131;50.820;16.274;2024-02-14T01:50:59;32.33;;;14.88;;
36441;SDS011;73131;50.820;16.274;2024-02-14T01:54:02;27.08;;;14.98;;
36441;SDS011;73131;50.820;16.274;2024-02-14T01:57:04;18.60;;;10.73;;
36441;SDS011;73131;50.820;16.274;2024-02-14T02:00:06;24.90;;;11.90;;
36441;SDS011;73131;50.820;16.274;2024-02-14T02:03:18;20.17;;;10.43;;
36441;SDS011;73131;50.820;16.274;2024-02-14T02:06:20;21.17;;;10.05;;
36441;SDS011;73131;50.820;16.274;2024-02-14T02:09:22;22.38;;;9.88;;
36441;SDS011;73131;50.820;16.274;2024-02-14T02:12:23;16.10;;;10.43;;
36441;SDS011;73131;50.820;16.274;2024-02-14T02:15:30;20.92;;;9.30;;
36441;SDS011;73131;50.820;16.274;2024-02-14T02:18:31;18.88;;;10.50;;
36441;SDS011;73131;50.820;16.274;2024-02-14T02:21:33;21.55;;;10.70;;
36441;SDS011;73131;50.820;16.274;2024-02-14T02:24:35;20.42;;;9.75;;
36441;SDS011;73131;50.820;16.274;2024-02-14T02:27:38;20.75;;;10.63;;
36441;SDS011;73131;50.820;16.274;2024-02-14T02:30:40;25.33;;;12.20;;
36441;SDS011;73131;50.820;16.274;2024-02-14T02:33:40;16.88;;;8.25;;
36441;SDS011;73131;50.820;16.274;2024-02-14T02:36:44;15.27;;;8.23;;
36441;SDS011;73131;50.820;16.274;2024-02-14T02:39:50;20.58;;;9.45;;
36441;SDS011;73131;50.820;16.274;2024-02-14T02:42:54;18.67;;;9.43;;
36441;SDS011;73131;50.820;16.274;2024-02-14T02:45:59;20.63;;;9.48;;
36441;SDS011;73131;50.820;16.274;2024-02-14T02:49:01;18.38;;;9.98;;
36441;SDS011;73131;50.820;16.274;2024-02-14T02:52:02;20.33;;;10.00;;
36441;SDS011;73131;50.820;16.274;2024-02-14T02:55:06;20.70;;;9.75;;
36441;SDS011;73131;50.820;16.274;2024-02-14T02:58:07;23.35;;;10.60;;
36441;SDS011;73131;50.820;16.274;2024-02-14T03:01:08;19.75;;;9.35;;
36441;SDS011;73131;50.820;16.274;2024-02-14T03:04:10;17.25;;;9.63;;
36441;SDS011;73131;50.820;16.274;2024-02-14T03:07:11;18.30;;;9.50;;
36441;SDS011;73131;50.820;16.274;2024-02-14T03:10:12;18.80;;;9.30;;
36441;SDS011;73131;50.820;16.274;2024-02-14T03:13:15;21.00;;;9.80;;
36441;SDS011;73131;50.820;16.274;2024-02-14T03:16:17;19.50;;;9.20;;
36441;SDS011;73131;50.820;16.274;2024-02-14T03:19:18;18.55;;;9.70;;
36441;SDS011;73131;50.820;16.274;2024-02-14T03:22:19;20.88;;;11.55;;
36441;SDS011;73131;50.820;16.274;2024-02-14T03:25:21;26.02;;;11.07;;
36441;SDS011;73131;50.820;16.274;2024-02-14T03:28:26;19.33;;;10.45;;
36441;SDS011;73131;50.820;16.274;2024-02-14T03:31:28;18.58;;;10.98;;
36441;SDS011;73131;50.820;16.274;2024-02-14T03:34:28;19.80;;;10.25;;
36441;SDS011;73131;50.820;16.274;2024-02-14T03:37:31;16.25;;;9.75;;
36441;SDS011;73131;50.820;16.274;2024-02-14T03:40:33;16.27;;;9.18;;
36441;SDS011;73131;50.820;16.274;2024-02-14T03:43:38;18.17;;;9.57;;
36441;SDS011;73131;50.820;16.274;2024-02-14T03:46:39;19.10;;;9.45;;
36441;SDS011;73131;50.820;16.274;2024-02-14T03:49:40;14.10;;;7.38;;
36441;SDS011;73131;50.820;16.274;2024-02-14T03:52:41;17.63;;;7.88;;
36441;SDS011;73131;50.820;16.274;2024-02-14T03:55:45;17.35;;;9.00;;
36441;SDS011;73131;50.820;16.274;2024-02-14T03:58:46;15.98;;;8.20;;
36441;SDS011;73131;50.820;16.274;2024-02-14T04:01:48;16.23;;;8.73;;
36441;SDS011;73131;50.820;16.274;2024-02-14T04:04:49;21.20;;;10.02;;
36441;SDS011;73131;50.820;16.274;2024-02-14T04:07:51;16.85;;;8.82;;
36441;SDS011;73131;50.820;16.274;2024-02-14T04:10:53;22.92;;;9.77;;
36441;SDS011;73131;50.820;16.274;2024-02-14T04:13:57;19.98;;;9.45;;
36441;SDS011;73131;50.820;16.274;2024-02-14T04:17:01;15.07;;;8.27;;
36441;SDS011;73131;50.820;16.274;2024-02-14T04:20:02;24.10;;;9.30;;
36441;SDS011;73131;50.820;16.274;2024-02-14T04:23:06;15.20;;;7.85;;
36441;SDS011;73131;50.820;16.274;2024-02-14T04:26:08;17.25;;;8.45;;
36441;SDS011;73131;50.820;16.274;2024-02-14T04:29:11;13.40;;;7.10;;
36441;SDS011;73131;50.820;16.274;2024-02-14T04:32:12;15.38;;;7.03;;
36441;SDS011;73131;50.820;16.274;2024-02-14T04:35:14;13.52;;;6.05;;
36441;SDS011;73131;50.820;16.274;2024-02-14T04:38:17;11.45;;;6.95;;
36441;SDS011;73131;50.820;16.274;2024-02-14T04:41:20;12.52;;;6.95;;
36441;SDS011;73131;50.820;16.274;2024-02-14T04:44:21;14.75;;;7.43;;
36441;SDS011;73131;50.820;16.274;2024-02-14T04:47:22;11.85;;;6.30;;
36441;SDS011;73131;50.820;16.274;2024-02-14T04:50:26;14.35;;;6.28;;
36441;SDS011;73131;50.820;16.274;2024-02-14T04:53:31;11.57;;;6.72;;
36441;SDS011;73131;50.820;16.274;2024-02-14T04:56:32;14.23;;;7.68;;
36441;SDS011;73131;50.820;16.274;2024-02-14T04:59:33;14.40;;;7.60;;
36441;SDS011;73131;50.820;16.274;2024-02-14T05:02:35;12.50;;;7.35;;
36441;SDS011;73131;50.820;16.274;2024-02-14T05:05:37;15.63;;;7.10;;
36441;SDS011;73131;50.820;16.274;2024-02-14T05:08:38;14.15;;;7.60;;
36441;SDS011;73131;50.820;16.274;2024-02-14T05:11:39;13.63;;;5.82;;
36441;SDS011;73131;50.820;16.274;2024-02-14T05:14:40;10.90;;;6.57;;
36441;SDS011;73131;50.820;16.274;2024-02-14T05:17:42;8.43;;;6.10;;
36441;SDS011;73131;50.820;16.274;2024-02-14T05:20:46;12.23;;;6.70;;
36441;SDS011;73131;50.820;16.274;2024-02-14T05:23:47;10.73;;;5.47;;
36441;SDS011;73131;50.820;16.274;2024-02-14T05:26:49;10.30;;;5.32;;
36441;SDS011;73131;50.820;16.274;2024-02-14T05:29:50;11.68;;;5.38;;
36441;SDS011;73131;50.820;16.274;2024-02-14T05:32:51;10.48;;;5.72;;
36441;SDS011;73131;50.820;16.274;2024-02-14T05:35:55;13.25;;;5.32;;
36441;SDS011;73131;50.820;16.274;2024-02-14T05:38:56;11.73;;;5.90;;
36441;SDS011;73131;50.820;16.274;2024-02-14T05:41:59;13.95;;;4.50;;
36441;SDS011;73131;50.820;16.274;2024-02-14T05:45:01;12.63;;;6.50;;
36441;SDS011;73131;50.820;16.274;2024-02-14T05:48:03;12.90;;;7.32;;
36441;SDS011;73131;50.820;16.274;2024-02-14T05:51:05;12.52;;;7.45;;
36441;SDS011;73131;50.820;16.274;2024-02-14T05:54:08;13.85;;;7.40;;
36441;SDS011;73131;50.820;16.274;2024-02-14T05:57:10;10.80;;;5.82;;
36441;SDS011;73131;50.820;16.274;2024-02-14T06:00:11;15.15;;;7.65;;
36441;SDS011;73131;50.820;16.274;2024-02-14T06:03:13;16.13;;;8.88;;
36441;SDS011;73131;50.820;16.274;2024-02-14T06:06:14;14.80;;;8.57;;
36441;SDS011;73131;50.820;16.274;2024-02-14T06:09:15;19.30;;;9.23;;
36441;SDS011;73131;50.820;16.274;2024-02-14T06:12:18;16.20;;;9.00;;
36441;SDS011;73131;50.820;16.274;2024-02-14T06:15:22;17.00;;;8.88;;
36441;SDS011;73131;50.820;16.274;2024-02-14T06:18:23;14.85;;;8.48;;
36441;SDS011;73131;50.820;16.274;2024-02-14T06:21:26;18.63;;;10.43;;
36441;SDS011;73131;50.820;16.274;2024-02-14T06:24:29;23.05;;;11.38;;
36441;SDS011;73131;50.820;16.274;2024-02-14T06:27:31;24.30;;;12.50;;
36441;SDS011;73131;50.820;16.274;2024-02-14T06:30:32;19.40;;;10.25;;
36441;SDS011;73131;50.820;16.274;2024-02-14T06:33:33;19.85;;;10.38;;
36441;SDS011;73131;50.820;16.274;2024-02-14T06:36:37;15.30;;;8.82;;
36441;SDS011;73131;50.820;16.274;2024-02-14T06:39:38;15.60;;;8.50;;
36441;SDS011;73131;50.820;16.274;2024-02-14T06:42:39;17.35;;;8.38;;
36441;SDS011;73131;50.820;16.274;2024-02-14T06:45:40;17.50;;;8.50;;
36441;SDS011;73131;50.820;16.274;2024-02-14T06:48:41;19.88;;;9.80;;
36441;SDS011;73131;50.820;16.274;2024-02-14T06:51:43;18.65;;;10.95;;
36441;SDS011;73131;50.820;16.274;2024-02-14T06:54:49;18.50;;;10.80;;
36441;SDS011;73131;50.820;16.274;2024-02-14T06:57:52;19.85;;;10.07;;
36441;SDS011;73131;50.820;16.274;2024-02-14T07:00:54;17.67;;;10.60;;
36441;SDS011;73131;50.820;16.274;2024-02-14T07:03:55;18.67;;;9.80;;
36441;SDS011;73131;50.820;16.274;2024-02-14T07:07:03;14.18;;;8.40;;
36441;SDS011;73131;50.820;16.274;2024-02-14T07:10:05;18.10;;;9.43;;
36441;SDS011;73131;50.820;16.274;2024-02-14T07:13:08;22.05;;;9.57;;
36441;SDS011;73131;50.820;16.274;2024-02-14T07:16:12;17.40;;;9.00;;
36441;SDS011;73131;50.820;16.274;2024-02-14T07:19:17;17.33;;;10.27;;
36441;SDS011;73131;50.820;16.274;2024-02-14T07:22:23;20.98;;;10.30;;
36441;SDS011;73131;50.820;16.274;2024-02-14T07:25:26;19.48;;;12.18;;
36441;SDS011;73131;50.820;16.274;2024-02-14T07:28:27;23.88;;;10.85;;
36441;SDS011;73131;50.820;16.274;2024-02-14T07:31:29;20.67;;;10.10;;
36441;SDS011;73131;50.820;16.274;2024-02-14T07:34:38;16.35;;;9.25;;
36441;SDS011;73131;50.820;16.274;2024-02-14T07:37:44;16.52;;;9.50;;
36441;SDS011;73131;50.820;16.274;2024-02-14T07:40:46;20.73;;;10.52;;
36441;SDS011;73131;50.820;16.274;2024-02-14T07:43:47;15.48;;;8.68;;
36441;SDS011;73131;50.820;16.274;2024-02-14T07:46:51;17.83;;;9.23;;
36441;SDS011;73131;50.820;16.274;2024-02-14T07:49:53;13.40;;;8.32;;
36441;SDS011;73131;50.820;16.274;2024-02-14T07:52:57;12.38;;;8.30;;
36441;SDS011;73131;50.820;16.274;2024-02-14T07:55:58;14.65;;;8.07;;
36441;SDS011;73131;50.820;16.274;2024-02-14T07:59:00;13.38;;;7.55;;
36441;SDS011;73131;50.820;16.274;2024-02-14T08:02:01;11.70;;;7.15;;
36441;SDS011;73131;50.820;16.274;2024-02-14T08:05:03;12.25;;;7.32;;
36441;SDS011;73131;50.820;16.274;2024-02-14T08:08:09;11.32;;;7.30;;
36441;SDS011;73131;50.820;16.274;2024-02-14T08:11:10;10.57;;;6.05;;
36441;SDS011;73131;50.820;16.274;2024-02-14T08:14:16;12.65;;;7.32;;
36441;SDS011;73131;50.820;16.274;2024-02-14T08:17:19;12.80;;;6.45;;
36441;SDS011;73131;50.820;16.274;2024-02-14T08:20:20;11.38;;;5.85;;
36441;SDS011;73131;50.820;16.274;2024-02-14T08:23:24;11.93;;;6.35;;
36441;SDS011;73131;50.820;16.274;2024-02-14T08:26:27;8.35;;;6.15;;
36441;SDS011;73131;50.820;16.274;2024-02-14T08:29:32;8.00;;;5.45;;
36441;SDS011;73131;50.820;16.274;2024-02-14T08:32:33;9.88;;;5.47;;
36441;SDS011;73131;50.820;16.274;2024-02-14T08:35:35;11.43;;;5.95;;
36441;SDS011;73131;50.820;16.274;2024-02-14T08:38:36;9.15;;;5.68;;
36441;SDS011;73131;50.820;16.274;2024-02-14T08:41:39;10.55;;;5.13;;
36441;SDS011;73131;50.820;16.274;2024-02-14T08:47:51;7.78;;;5.55;;
36441;SDS011;73131;50.820;16.274;2024-02-14T08:50:56;10.35;;;6.43;;
36441;SDS011;73131;50.820;16.274;2024-02-14T08:54:01;10.55;;;5.95;;
36441;SDS011;73131;50.820;16.274;2024-02-14T08:57:05;7.82;;;5.15;;
36441;SDS011;73131;50.820;16.274;2024-02-14T09:00:06;8.90;;;5.78;;
36441;SDS011;73131;50.820;16.274;2024-02-14T09:03:08;11.23;;;6.03;;
36441;SDS011;73131;50.820;16.274;2024-02-14T09:06:10;9.35;;;6.40;;
36441;SDS011;73131;50.820;16.274;2024-02-14T09:09:13;10.02;;;7.25;;
36441;SDS011;73131;50.820;16.274;2024-02-14T09:12:26;10.18;;;5.93;;
36441;SDS011;73131;50.820;16.274;2024-02-14T09:15:42;9.23;;;6.03;;
36441;SDS011;73131;50.820;16.274;2024-02-14T09:18:44;8.73;;;5.75;;
36441;SDS011;73131;50.820;16.274;2024-02-14T09:21:48;9.52;;;5.82;;
36441;SDS011;73131;50.820;16.274;2024-02-14T09:28:22;8.38;;;4.75;;
36441;SDS011;73131;50.820;16.274;2024-02-14T09:31:23;8.82;;;5.05;;
36441;SDS011;73131;50.820;16.274;2024-02-14T09:34:26;7.60;;;4.82;;
36441;SDS011;73131;50.820;16.274;2024-02-14T09:37:31;9.93;;;4.85;;
36441;SDS011;73131;50.820;16.274;2024-02-14T09:40:33;12.35;;;6.35;;
36441;SDS011;73131;50.820;16.274;2024-02-14T09:43:35;7.95;;;5.50;;
36441;SDS011;73131;50.820;16.274;2024-02-14T09:46:41;7.57;;;4.55;;
36441;SDS011;73131;50.820;16.274;2024-02-14T09:49:45;10.75;;;5.40;;
36441;SDS011;73131;50.820;16.274;2024-02-14T09:52:47;12.27;;;6.03;;
36441;SDS011;73131;50.820;16.274;2024-02-14T09:55:52;6.88;;;4.75;;
36441;SDS011;73131;50.820;16.274;2024-02-14T09:58:56;6.65;;;4.32;;
36441;SDS011;73131;50.820;16.274;2024-02-14T10:02:00;11.50;;;5.50;;
36441;SDS011;73131;50.820;16.274;2024-02-14T10:05:01;5.45;;;3.85;;
36441;SDS011;73131;50.820;16.274;2024-02-14T10:08:03;5.95;;;3.83;;
36441;SDS011;73131;50.820;16.274;2024-02-14T10:11:04;7.65;;;4.85;;
36441;SDS011;73131;50.820;16.274;2024-02-14T10:14:07;6.38;;;4.18;;
36441;SDS011;73131;50.820;16.274;2024-02-14T10:17:18;7.93;;;3.92;;
36441;SDS011;73131;50.820;16.274;2024-02-14T10:20:21;6.35;;;3.85;;
36441;SDS011;73131;50.820;16.274;2024-02-14T10:23:27;6.80;;;3.97;;
36441;SDS011;73131;50.820;16.274;2024-02-14T10:26:30;4.85;;;3.50;;
36441;SDS011;73131;50.820;16.274;2024-02-14T10:29:34;7.10;;;3.50;;
36441;SDS011;73131;50.820;16.274;2024-02-14T10:32:39;5.78;;;3.80;;
36441;SDS011;73131;50.820;16.274;2024-02-14T10:35:50;6.15;;;3.72;;
36441;SDS011;73131;50.820;16.274;2024-02-14T10:38:56;6.97;;;3.70;;
36441;SDS011;73131;50.820;16.274;2024-02-14T10:41:59;6.68;;;3.60;;
36441;SDS011;73131;50.820;16.274;2024-02-14T10:45:04;11.57;;;4.30;;
36441;SDS011;73131;50.820;16.274;2024-02-14T10:48:11;6.10;;;3.53;;
36441;SDS011;73131;50.820;16.274;2024-02-14T10:51:13;6.10;;;2.85;;
36441;SDS011;73131;50.820;16.274;2024-02-14T10:54:22;8.25;;;4.10;;
36441;SDS011;73131;50.820;16.274;2024-02-14T10:57:28;6.07;;;2.92;;
36441;SDS011;73131;50.820;16.274;2024-02-14T11:00:30;4.15;;;2.63;;
36441;SDS011;73131;50.820;16.274;2024-02-14T11:03:34;4.70;;;2.30;;
36441;SDS011;73131;50.820;16.274;2024-02-14T11:06:48;4.20;;;2.00;;
36441;SDS011;73131;50.820;16.274;2024-02-14T11:10:06;4.32;;;2.35;;
36441;SDS011;73131;50.820;16.274;2024-02-14T11:13:14;4.00;;;2.40;;
36441;SDS011;73131;50.820;16.274;2024-02-14T11:16:15;3.65;;;2.17;;
36441;SDS011;73131;50.820;16.274;2024-02-14T11:19:16;4.05;;;1.55;;
36441;SDS011;73131;50.820;16.274;2024-02-14T11:22:17;3.00;;;1.92;;
36441;SDS011;73131;50.820;16.274;2024-02-14T11:25:43;5.32;;;2.05;;
36441;SDS011;73131;50.820;16.274;2024-02-14T11:28:47;2.53;;;1.77;;
36441;SDS011;73131;50.820;16.274;2024-02-14T11:31:56;4.70;;;1.90;;
36441;SDS011;73131;50.820;16.274;2024-02-14T11:35:06;3.50;;;2.08;;
36441;SDS011;73131;50.820;16.274;2024-02-14T11:38:11;6.63;;;2.72;;
36441;SDS011;73131;50.820;16.274;2024-02-14T11:41:12;5.03;;;2.53;;
36441;SDS011;73131;50.820;16.274;2024-02-14T11:44:13;5.47;;;2.30;;
36441;SDS011;73131;50.820;16.274;2024-02-14T11:47:17;4.70;;;2.35;;
36441;SDS011;73131;50.820;16.274;2024-02-14T11:50:20;4.38;;;2.63;;
36441;SDS011;73131;50.820;16.274;2024-02-14T11:53:27;6.70;;;2.40;;
36441;SDS011;73131;50.820;16.274;2024-02-14T11:56:33;5.95;;;2.55;;
36441;SDS011;73131;50.820;16.274;2024-02-14T11:59:36;6.88;;;2.60;;
36441;SDS011;73131;50.820;16.274;2024-02-14T12:02:37;6.38;;;2.28;;
36441;SDS011;73131;50.820;16.274;2024-02-14T12:05:39;4.63;;;2.28;;
36441;SDS011;73131;50.820;16.274;2024-02-14T12:08:41;5.07;;;2.40;;
36441;SDS011;73131;50.820;16.274;2024-02-14T12:11:46;4.97;;;2.35;;
36441;SDS011;73131;50.820;16.274;2024-02-14T12:14:47;4.53;;;2.63;;
36441;SDS011;73131;50.820;16.274;2024-02-14T12:17:51;5.80;;;2.97;;
36441;SDS011;73131;50.820;16.274;2024-02-14T12:21:06;6.65;;;2.42;;
36441;SDS011;73131;50.820;16.274;2024-02-14T12:24:11;3.75;;;2.30;;
36441;SDS011;73131;50.820;16.274;2024-02-14T12:27:17;7.35;;;2.70;;
36441;SDS011;73131;50.820;16.274;2024-02-14T12:30:21;5.18;;;2.45;;
36441;SDS011;73131;50.820;16.274;2024-02-14T12:33:25;4.85;;;3.42;;
36441;SDS011;73131;50.820;16.274;2024-02-14T12:36:29;5.30;;;3.03;;
36441;SDS011;73131;50.820;16.274;2024-02-14T12:39:33;6.55;;;3.08;;
36441;SDS011;73131;50.820;16.274;2024-02-14T12:42:36;6.72;;;2.75;;
36441;SDS011;73131;50.820;16.274;2024-02-14T12:45:37;4.72;;;2.78;;
36441;SDS011;73131;50.820;16.274;2024-02-14T12:48:39;7.72;;;3.53;;
36441;SDS011;73131;50.820;16.274;2024-02-14T12:51:40;5.63;;;3.20;;
36441;SDS011;73131;50.820;16.274;2024-02-14T12:54:43;5.57;;;2.65;;
36441;SDS011;73131;50.820;16.274;2024-02-14T12:57:46;4.28;;;2.80;;
36441;SDS011;73131;50.820;16.274;2024-02-14T13:00:50;6.20;;;3.40;;
36441;SDS011;73131;50.820;16.274;2024-02-14T13:03:51;2.95;;;2.20;;
36441;SDS011;73131;50.820;16.274;2024-02-14T13:06:55;5.82;;;2.78;;
36441;SDS011;73131;50.820;16.274;2024-02-14T13:09:56;7.00;;;3.53;;
36441;SDS011;73131;50.820;16.274;2024-02-14T13:13:02;7.07;;;2.88;;
36441;SDS011;73131;50.820;16.274;2024-02-14T13:16:07;6.93;;;2.97;;
36441;SDS011;73131;50.820;16.274;2024-02-14T13:19:09;7.15;;;3.67;;
36441;SDS011;73131;50.820;16.274;2024-02-14T13:22:09;4.55;;;2.97;;
36441;SDS011;73131;50.820;16.274;2024-02-14T13:25:17;5.05;;;2.92;;
36441;SDS011;73131;50.820;16.274;2024-02-14T13:28:18;8.65;;;3.47;;
36441;SDS011;73131;50.820;16.274;2024-02-14T13:31:19;6.25;;;3.72;;
36441;SDS011;73131;50.820;16.274;2024-02-14T13:34:20;6.13;;;3.47;;
36441;SDS011;73131;50.820;16.274;2024-02-14T13:37:24;5.75;;;3.30;;
36441;SDS011;73131;50.820;16.274;2024-02-14T13:40:25;6.28;;;3.08;;
36441;SDS011;73131;50.820;16.274;2024-02-14T13:43:26;10.02;;;4.45;;
36441;SDS011;73131;50.820;16.274;2024-02-14T13:46:30;5.28;;;3.40;;
36441;SDS011;73131;50.820;16.274;2024-02-14T13:49:35;6.82;;;3.45;;
36441;SDS011;73131;50.820;16.274;2024-02-14T13:52:38;4.88;;;2.80;;
36441;SDS011;73131;50.820;16.274;2024-02-14T13:55:41;6.43;;;3.55;;
36441;SDS011;73131;50.820;16.274;2024-02-14T13:58:45;7.43;;;3.40;;
36441;SDS011;73131;50.820;16.274;2024-02-14T14:01:49;7.00;;;3.38;;
36441;SDS011;73131;50.820;16.274;2024-02-14T14:04:53;8.15;;;3.75;;
36441;SDS011;73131;50.820;16.274;2024-02-14T14:07:56;5.68;;;3.45;;
36441;SDS011;73131;50.820;16.274;2024-02-14T14:14:05;5.88;;;3.00;;
36441;SDS011;73131;50.820;16.274;2024-02-14T14:17:06;5.43;;;3.60;;
36441;SDS011;73131;50.820;16.274;2024-02-14T14:20:07;6.80;;;3.83;;
36441;SDS011;73131;50.820;16.274;2024-02-14T14:23:11;5.95;;;3.97;;
36441;SDS011;73131;50.820;16.274;2024-02-14T14:26:13;6.68;;;3.83;;
36441;SDS011;73131;50.820;16.274;2024-02-14T14:29:15;7.32;;;4.30;;
36441;SDS011;73131;50.820;16.274;2024-02-14T14:32:19;8.70;;;4.90;;
36441;SDS011;73131;50.820;16.274;2024-02-14T14:35:23;10.52;;;4.53;;
36441;SDS011;73131;50.820;16.274;2024-02-14T14:38:24;7.95;;;4.45;;
36441;SDS011;73131;50.820;16.274;2024-02-14T14:41:26;10.18;;;4.68;;
36441;SDS011;73131;50.820;16.274;2024-02-14T14:44:29;7.43;;;4.57;;
36441;SDS011;73131;50.820;16.274;2024-02-14T14:47:31;8.90;;;4.38;;
36441;SDS011;73131;50.820;16.274;2024-02-14T14:50:34;6.18;;;4.15;;
36441;SDS011;73131;50.820;16.274;2024-02-14T14:53:38;8.60;;;4.65;;
36441;SDS011;73131;50.820;16.274;2024-02-14T14:56:52;9.77;;;4.30;;
36441;SDS011;73131;50.820;16.274;2024-02-14T14:59:54;9.00;;;4.78;;
36441;SDS011;73131;50.820;16.274;2024-02-14T15:02:55;7.88;;;4.32;;
36441;SDS011;73131;50.820;16.274;2024-02-14T15:06:01;6.53;;;3.50;;
36441;SDS011;73131;50.820;16.274;2024-02-14T15:09:03;8.38;;;4.68;;
36441;SDS011;73131;50.820;16.274;2024-02-14T15:12:04;8.13;;;4.18;;
36441;SDS011;73131;50.820;16.274;2024-02-14T15:15:05;11.98;;;4.78;;
36441;SDS011;73131;50.820;16.274;2024-02-14T15:18:07;9.57;;;5.68;;
36441;SDS011;73131;50.820;16.274;2024-02-14T15:21:08;8.27;;;4.65;;
36441;SDS011;73131;50.820;16.274;2024-02-14T15:24:09;7.93;;;4.40;;
36441;SDS011;73131;50.820;16.274;2024-02-14T15:27:10;10.88;;;4.82;;
36441;SDS011;73131;50.820;16.274;2024-02-14T15:30:23;7.30;;;5.53;;
36441;SDS011;73131;50.820;16.274;2024-02-14T15:33:45;7.95;;;4.63;;
36441;SDS011;73131;50.820;16.274;2024-02-14T15:36:48;9.38;;;5.15;;
36441;SDS011;73131;50.820;16.274;2024-02-14T15:39:51;9.32;;;5.00;;
36441;SDS011;73131;50.820;16.274;2024-02-14T15:42:52;8.30;;;4.35;;
36441;SDS011;73131;50.820;16.274;2024-02-14T15:45:56;7.53;;;4.20;;
36441;SDS011;73131;50.820;16.274;2024-02-14T15:49:01;8.13;;;4.88;;
36441;SDS011;73131;50.820;16.274;2024-02-14T15:52:02;8.23;;;4.43;;
36441;SDS011;73131;50.820;16.274;2024-02-14T15:55:05;10.15;;;4.93;;
36441;SDS011;73131;50.820;16.274;2024-02-14T15:58:09;7.40;;;4.85;;
36441;SDS011;73131;50.820;16.274;2024-02-14T16:01:10;8.38;;;4.85;;
36441;SDS011;73131;50.820;16.274;2024-02-14T16:04:17;9.80;;;5.30;;
36441;SDS011;73131;50.820;16.274;2024-02-14T16:07:18;9.63;;;6.25;;
36441;SDS011;73131;50.820;16.274;2024-02-14T16:10:20;9.75;;;4.65;;
36441;SDS011;73131;50.820;16.274;2024-02-14T16:13:22;37.15;;;16.13;;
36441;SDS011;73131;50.820;16.274;2024-02-14T16:16:28;17.52;;;8.55;;
36441;SDS011;73131;50.820;16.274;2024-02-14T16:19:32;7.25;;;5.07;;
36441;SDS011;73131;50.820;16.274;2024-02-14T16:22:37;11.07;;;5.80;;
36441;SDS011;73131;50.820;16.274;2024-02-14T16:25:40;12.32;;;5.88;;
36441;SDS011;73131;50.820;16.274;2024-02-14T16:28:41;10.43;;;5.18;;
36441;SDS011;73131;50.820;16.274;2024-02-14T16:31:42;11.00;;;6.18;;
36441;SDS011;73131;50.820;16.274;2024-02-14T16:34:44;8.88;;;5.68;;
36441;SDS011;73131;50.820;16.274;2024-02-14T16:37:53;8.00;;;5.07;;
36441;SDS011;73131;50.820;16.274;2024-02-14T16:41:00;8.15;;;5.03;;
36441;SDS011;73131;50.820;16.274;2024-02-14T16:44:06;10.70;;;4.93;;
36441;SDS011;73131;50.820;16.274;2024-02-14T16:47:19;11.65;;;6.07;;
36441;SDS011;73131;50.820;16.274;2024-02-14T16:50:24;11.52;;;5.70;;
36441;SDS011;73131;50.820;16.274;2024-02-14T16:53:29;9.07;;;5.50;;
36441;SDS011;73131;50.820;16.274;2024-02-14T16:56:32;10.77;;;6.28;;
36441;SDS011;73131;50.820;16.274;2024-02-14T16:59:35;9.32;;;5.80;;
36441;SDS011;73131;50.820;16.274;2024-02-14T17:02:37;10.93;;;6.30;;
36441;SDS011;73131;50.820;16.274;2024-02-14T17:05:39;11.73;;;6.88;;
36441;SDS011;73131;50.820;16.274;2024-02-14T17:08:42;11.52;;;7.13;;
36441;SDS011;73131;50.820;16.274;2024-02-14T17:11:44;13.73;;;7.45;;
36441;SDS011;73131;50.820;16.274;2024-02-14T17:14:45;8.88;;;6.18;;
36441;SDS011;73131;50.820;16.274;2024-02-14T17:17:49;12.30;;;7.60;;
36441;SDS011;73131;50.820;16.274;2024-02-14T17:20:52;12.80;;;6.85;;
36441;SDS011;73131;50.820;16.274;2024-02-14T17:23:58;13.05;;;6.65;;
36441;SDS011;73131;50.820;16.274;2024-02-14T17:27:04;10.40;;;6.53;;
36441;SDS011;73131;50.820;16.274;2024-02-14T17:30:10;12.30;;;7.40;;
36441;SDS011;73131;50.820;16.274;2024-02-14T17:33:12;9.77;;;6.47;;
36441;SDS011;73131;50.820;16.274;2024-02-14T17:36:15;12.85;;;6.82;;
36441;SDS011;73131;50.820;16.274;2024-02-14T17:39:16;11.32;;;7.07;;
36441;SDS011;73131;50.820;16.274;2024-02-14T17:42:30;11.90;;;7.40;;
36441;SDS011;73131;50.820;16.274;2024-02-14T17:45:33;11.55;;;6.65;;
36441;SDS011;73131;50.820;16.274;2024-02-14T17:48:43;11.25;;;6.50;;
36441;SDS011;73131;50.820;16.274;2024-02-14T17:51:44;9.13;;;6.38;;
36441;SDS011;73131;50.820;16.274;2024-02-14T17:54:56;9.55;;;6.18;;
36441;SDS011;73131;50.820;16.274;2024-02-14T17:58:00;9.27;;;5.90;;
36441;SDS011;73131;50.820;16.274;2024-02-14T18:01:04;8.40;;;5.40;;
36441;SDS011;73131;50.820;16.274;2024-02-14T18:04:09;11.30;;;6.05;;